createdAt,value
2019-04-26T00:01:59.705Z,13.00
2019-04-26T00:04:28.627Z,12.90
2019-04-26T00:06:57.205Z,12.90
2019-04-26T00:09:29.955Z,12.90
2019-04-26T00:12:00.229Z,12.90
2019-04-26T00:14:36.509Z,12.80
2019-04-26T00:17:06.721Z,12.80
2019-04-26T00:19:35.517Z,12.70
2019-04-26T00:22:04.355Z,12.70
2019-04-26T00:24:33.210Z,12.60
2019-04-26T00:27:01.770Z,12.60
2019-04-26T00:29:30.355Z,12.50
2019-04-26T00:31:58.927Z,12.40
2019-04-26T00:34:27.521Z,12.40
2019-04-26T00:36:56.014Z,12.40
2019-04-26T00:39:25.084Z,12.30
2019-04-26T00:41:53.937Z,12.30
2019-04-26T00:44:22.866Z,12.20
2019-04-26T00:46:54.111Z,12.20
2019-04-26T00:49:23.420Z,12.20
2019-04-26T00:51:52.534Z,12.20
2019-04-26T00:54:22.216Z,12.20
2019-04-26T00:56:51.245Z,12.20
2019-04-26T00:59:20.571Z,12.20
2019-04-26T01:01:50.850Z,12.20
2019-04-26T01:04:19.497Z,12.20
2019-04-26T01:06:49.673Z,12.20
2019-04-26T01:09:19.484Z,12.20
2019-04-26T01:11:48.083Z,12.20
2019-04-26T01:14:17.813Z,12.20
2019-04-26T01:16:46.425Z,12.10
2019-04-26T01:19:17.102Z,12.00
2019-04-26T01:21:52.002Z,11.90
2019-04-26T01:24:23.697Z,11.80
2019-04-26T01:26:55.514Z,11.80
2019-04-26T01:29:25.981Z,11.80
2019-04-26T01:31:57.625Z,11.80
2019-04-26T01:34:26.446Z,11.70
2019-04-26T01:36:57.189Z,11.70
2019-04-26T01:39:25.910Z,11.70
2019-04-26T01:42:09.096Z,11.70
2019-04-26T01:44:58.205Z,11.70
2019-04-26T01:47:28.310Z,11.70
2019-04-26T01:49:57.125Z,11.70
2019-04-26T01:52:25.789Z,11.70
2019-04-26T01:54:54.661Z,11.80
2019-04-26T01:57:27.251Z,11.80
2019-04-26T01:59:58.702Z,11.80
2019-04-26T02:02:29.791Z,11.90
2019-04-26T02:05:00.105Z,11.90
2019-04-26T02:07:41.172Z,11.90
2019-04-26T02:10:12.671Z,11.90
2019-04-26T02:12:44.293Z,11.90
2019-04-26T02:15:14.014Z,11.80
2019-04-26T02:17:43.831Z,11.80
2019-04-26T02:20:13.155Z,11.70
2019-04-26T02:22:43.638Z,11.70
2019-04-26T02:25:12.265Z,11.70
2019-04-26T02:27:40.877Z,11.70
2019-04-26T02:30:09.652Z,11.70
2019-04-26T02:32:38.989Z,11.80
2019-04-26T02:35:08.307Z,11.80
2019-04-26T02:37:38.334Z,11.80
2019-04-26T02:40:09.990Z,11.80
2019-04-26T02:42:41.106Z,11.80
2019-04-26T02:45:22.936Z,11.90
2019-04-26T02:47:56.006Z,12.00
2019-04-26T02:50:43.254Z,12.00
2019-04-26T02:53:31.536Z,12.10
2019-04-26T02:56:21.262Z,12.10
2019-04-26T02:58:59.102Z,12.00
2019-04-26T03:01:29.955Z,12.00
2019-04-26T03:03:59.534Z,12.00
2019-04-26T03:06:32.086Z,12.00
2019-04-26T03:09:05.203Z,12.00
2019-04-26T03:11:37.105Z,12.00
2019-04-26T03:14:10.706Z,12.10
2019-04-26T03:16:58.719Z,12.10
2019-04-26T03:19:36.235Z,12.00
2019-04-26T03:22:16.762Z,12.00
2019-04-26T03:24:57.108Z,12.00
2019-04-26T03:27:35.706Z,12.00
2019-04-26T03:30:23.197Z,12.10
2019-04-26T03:32:58.860Z,12.00
2019-04-26T03:35:54.877Z,12.10
2019-04-26T03:38:21.167Z,12.00
2019-04-26T03:41:00.532Z,12.00
2019-04-26T03:44:02.250Z,11.90
2019-04-26T03:46:41.337Z,11.90
2019-04-26T03:49:21.646Z,12.00
2019-04-26T03:52:15.716Z,12.00
2019-04-26T03:54:47.376Z,12.00
2019-04-26T03:57:42.689Z,12.00
2019-04-26T04:00:18.029Z,12.00
2019-04-26T04:03:03.246Z,12.00
2019-04-26T04:05:46.054Z,12.00
2019-04-26T04:08:18.478Z,12.00
2019-04-26T04:10:55.769Z,12.00
2019-04-26T04:13:42.975Z,12.00
2019-04-26T04:16:29.123Z,12.00
2019-04-26T04:19:12.794Z,12.00
2019-04-26T04:21:54.985Z,12.00
2019-04-26T04:24:26.669Z,12.10
2019-04-26T04:27:12.983Z,12.10
2019-04-26T04:29:56.640Z,12.10
2019-04-26T04:32:41.896Z,12.00
2019-04-26T04:35:13.920Z,12.00
2019-04-26T04:38:08.419Z,12.00
2019-04-26T04:41:12.298Z,12.00
2019-04-26T04:43:51.243Z,12.00
2019-04-26T04:46:41.759Z,12.00
2019-04-26T04:49:24.587Z,12.00
2019-04-26T04:52:17.310Z,11.90
2019-04-26T04:55:06.825Z,12.00
2019-04-26T04:57:40.128Z,12.00
2019-04-26T05:00:45.879Z,12.10
2019-04-26T05:03:27.741Z,12.10
2019-04-26T05:06:18.626Z,12.10
2019-04-26T05:08:56.072Z,12.10
2019-04-26T05:11:46.343Z,12.10
2019-04-26T05:14:23.919Z,12.10
2019-04-26T05:17:28.651Z,12.00
2019-04-26T05:20:21.843Z,12.00
2019-04-26T05:23:14.769Z,12.00
2019-04-26T05:26:10.277Z,12.00
2019-04-26T05:29:05.582Z,12.00
2019-04-26T05:31:49.630Z,12.00
2019-04-26T05:34:47.825Z,12.10
2019-04-26T05:37:38.406Z,12.00
2019-04-26T05:40:24.915Z,12.00
2019-04-26T05:43:31.229Z,11.90
2019-04-26T05:46:31.075Z,12.00
2019-04-26T05:49:24.650Z,12.00
2019-04-26T05:52:30.608Z,12.00
2019-04-26T05:55:27.801Z,12.00
2019-04-26T05:58:11.285Z,12.10
2019-04-26T06:01:03.916Z,12.00
2019-04-26T06:04:26.337Z,12.00
2019-04-26T06:07:08.215Z,11.90
2019-04-26T06:09:44.217Z,11.90
2019-04-26T06:12:48.386Z,11.90
2019-04-26T06:15:33.483Z,11.90
2019-04-26T06:18:26.702Z,11.90
2019-04-26T06:21:10.518Z,12.00
2019-04-26T06:23:47.838Z,12.00
2019-04-26T06:26:39.833Z,12.00
2019-04-26T06:29:20.378Z,11.90
2019-04-26T06:31:52.101Z,11.90
2019-04-26T06:34:35.749Z,12.00
2019-04-26T06:37:09.010Z,11.90
2019-04-26T06:39:56.009Z,11.90
2019-04-26T06:42:36.434Z,11.90
2019-04-26T06:45:25.835Z,11.90
2019-04-26T06:48:13.876Z,11.90
2019-04-26T06:51:03.263Z,11.90
2019-04-26T06:53:43.418Z,12.00
2019-04-26T06:56:41.986Z,11.90
2019-04-26T06:59:36.498Z,11.80
2019-04-26T07:02:29.741Z,11.80
2019-04-26T07:05:07.056Z,11.80
2019-04-26T07:07:53.810Z,11.80
2019-04-26T07:10:32.969Z,11.80
2019-04-26T07:13:18.348Z,11.70
2019-04-26T07:15:50.009Z,11.80
2019-04-26T07:18:56.110Z,11.80
2019-04-26T07:21:29.397Z,11.80
2019-04-26T07:24:25.516Z,11.90
2019-04-26T07:27:18.287Z,11.90
2019-04-26T07:30:16.909Z,11.90
2019-04-26T07:32:57.609Z,11.90
2019-04-26T07:35:44.163Z,11.90
2019-04-26T07:38:15.809Z,11.90
2019-04-26T07:41:12.897Z,12.00
2019-04-26T07:43:58.170Z,12.00
2019-04-26T07:46:46.030Z,12.00
2019-04-26T07:49:52.174Z,12.00
2019-04-26T07:52:48.981Z,12.00
2019-04-26T07:55:29.932Z,12.00
2019-04-26T07:58:35.437Z,12.00
2019-04-26T08:01:09.919Z,12.10
2019-04-26T08:03:50.516Z,12.20
2019-04-26T08:06:22.150Z,12.20
2019-04-26T08:08:53.769Z,12.30
2019-04-26T08:11:40.355Z,12.30
2019-04-26T08:14:12.581Z,12.30
2019-04-26T08:17:04.824Z,12.30
2019-04-26T08:19:42.766Z,12.10
2019-04-26T08:22:20.363Z,12.20
2019-04-26T08:24:46.147Z,12.20
2019-04-26T08:27:23.672Z,12.20
2019-04-26T08:29:54.277Z,12.20
2019-04-26T08:32:28.131Z,12.30
2019-04-26T08:35:08.250Z,12.30
2019-04-26T08:37:38.779Z,12.20
2019-04-26T08:40:08.723Z,12.30
2019-04-26T08:42:44.447Z,12.30
2019-04-26T08:45:27.688Z,12.30
2019-04-26T08:48:17.253Z,12.10
2019-04-26T08:50:52.012Z,12.10
2019-04-26T08:53:22.687Z,12.20
2019-04-26T08:55:54.326Z,12.00
2019-04-26T08:58:26.041Z,12.00
2019-04-26T09:00:59.397Z,12.10
2019-04-26T09:03:48.570Z,12.10
2019-04-26T09:06:20.943Z,12.10
2019-04-26T09:08:52.149Z,12.10
2019-04-26T09:11:26.443Z,12.20
2019-04-26T09:13:55.495Z,12.40
2019-04-26T09:16:24.155Z,12.40
2019-04-26T09:18:55.115Z,12.50
2019-04-26T09:21:28.893Z,12.60
2019-04-26T09:24:08.518Z,12.80
2019-04-26T09:26:48.493Z,12.80
2019-04-26T09:29:32.089Z,13.10
2019-04-26T09:32:18.236Z,13.20
2019-04-26T09:34:47.454Z,13.20
2019-04-26T09:37:16.352Z,13.30
2019-04-26T09:39:44.960Z,13.50
2019-04-26T09:42:29.985Z,13.40
2019-04-26T09:45:03.358Z,13.30
2019-04-26T09:47:39.261Z,13.40
2019-04-26T09:50:18.263Z,13.20
2019-04-26T09:52:54.175Z,13.20
2019-04-26T09:55:34.778Z,13.30
2019-04-26T09:57:53.485Z,13.20
2019-04-26T10:00:30.873Z,13.30
2019-04-26T10:02:59.652Z,13.30
2019-04-26T10:05:28.219Z,13.30
2019-04-26T10:07:57.099Z,13.50
2019-04-26T10:10:31.131Z,13.60
2019-04-26T10:13:00.132Z,13.80
2019-04-26T10:15:39.024Z,13.70
2019-04-26T10:18:08.267Z,13.70
2019-04-26T10:20:36.926Z,13.70
2019-04-26T10:23:06.214Z,13.70
2019-04-26T10:25:34.822Z,13.80
2019-04-26T10:28:03.471Z,13.90
2019-04-26T10:30:31.994Z,14.20
2019-04-26T10:33:02.166Z,14.40
2019-04-26T10:35:30.806Z,14.50
2019-04-26T10:37:59.386Z,14.70
2019-04-26T10:40:35.313Z,14.70
2019-04-26T10:42:58.197Z,14.60
2019-04-26T10:45:28.027Z,14.50
2019-04-26T10:47:56.607Z,14.40
2019-04-26T10:50:28.837Z,14.30
2019-04-26T10:52:59.883Z,14.30
2019-04-26T10:55:33.095Z,14.30
2019-04-26T10:58:15.169Z,14.30
2019-04-26T11:00:48.439Z,14.20
2019-04-26T11:03:15.847Z,14.10
2019-04-26T11:05:44.834Z,14.20
2019-04-26T11:08:13.406Z,14.10
2019-04-26T11:10:48.516Z,14.20
2019-04-26T11:13:12.153Z,14.10
2019-04-26T11:15:40.818Z,14.00
2019-04-26T11:18:10.942Z,13.90
2019-04-26T11:20:41.409Z,14.00
2019-04-26T11:23:11.706Z,14.10
2019-04-26T11:25:40.349Z,14.10
2019-04-26T11:28:08.997Z,14.10
2019-04-26T11:30:37.600Z,14.00
2019-04-26T11:33:07.269Z,14.00
2019-04-26T11:35:36.529Z,13.90
2019-04-26T11:38:05.341Z,14.00
2019-04-26T11:40:34.019Z,13.90
2019-04-26T11:43:02.612Z,13.80
2019-04-26T11:45:31.270Z,13.90
2019-04-26T11:47:59.863Z,13.90
2019-04-26T11:50:28.436Z,13.90
2019-04-26T11:52:57.022Z,14.00
2019-04-26T11:55:29.611Z,14.10
2019-04-26T11:57:55.757Z,14.40
2019-04-26T12:00:27.534Z,14.60
2019-04-26T12:02:56.226Z,14.80
2019-04-26T12:05:44.094Z,15.00
2019-04-26T12:08:17.151Z,15.40
2019-04-26T12:10:45.905Z,15.50
2019-04-26T12:13:14.545Z,15.50
2019-04-26T12:15:45.428Z,15.50
2019-04-26T12:18:14.122Z,15.60
2019-04-26T12:20:42.744Z,15.50
2019-04-26T12:23:13.527Z,15.50
2019-04-26T12:25:43.711Z,15.50
2019-04-26T12:28:11.829Z,15.40
2019-04-26T12:30:40.367Z,15.50
2019-04-26T12:33:08.969Z,15.60
2019-04-26T12:35:37.544Z,15.60
2019-04-26T12:38:06.141Z,15.60
2019-04-26T12:40:34.953Z,15.50
2019-04-26T12:43:03.629Z,15.40
2019-04-26T12:45:36.579Z,15.10
2019-04-26T12:48:08.157Z,15.10
2019-04-26T12:50:37.842Z,15.20
2019-04-26T12:53:06.493Z,15.20
2019-04-26T12:55:35.208Z,15.00
2019-04-26T12:58:03.865Z,15.00
2019-04-26T13:00:33.032Z,15.00
2019-04-26T13:03:04.795Z,14.90
2019-04-26T13:05:33.495Z,14.70
2019-04-26T13:08:02.147Z,14.70
2019-04-26T13:10:48.254Z,14.60
2019-04-26T13:13:18.532Z,14.60
2019-04-26T13:16:05.656Z,14.60
2019-04-26T13:18:34.383Z,14.60
2019-04-26T13:21:04.193Z,14.80
2019-04-26T13:23:34.078Z,14.80
2019-04-26T13:26:02.651Z,14.90
2019-04-26T13:28:31.324Z,14.90
2019-04-26T13:31:02.165Z,14.90
2019-04-26T13:33:30.403Z,15.00
2019-04-26T13:36:03.117Z,15.00
2019-04-26T13:38:29.266Z,15.10
2019-04-26T13:40:59.659Z,15.30
2019-04-26T13:43:28.749Z,15.20
2019-04-26T13:46:15.393Z,15.30
2019-04-26T13:48:57.315Z,15.50
2019-04-26T13:51:33.286Z,15.40
2019-04-26T13:54:01.880Z,15.30
2019-04-26T13:56:32.026Z,15.30
2019-04-26T13:59:02.189Z,15.30
2019-04-26T14:01:30.690Z,15.40
2019-04-26T14:04:02.500Z,15.40
2019-04-26T14:06:30.827Z,15.30
2019-04-26T14:09:02.843Z,15.50
2019-04-26T14:11:30.462Z,15.50
2019-04-26T14:14:00.104Z,15.50
2019-04-26T14:16:29.294Z,15.50
2019-04-26T14:18:57.857Z,15.60
2019-04-26T14:21:29.189Z,15.60
2019-04-26T14:24:00.999Z,15.60
2019-04-26T14:26:35.339Z,15.60
2019-04-26T14:29:04.645Z,15.60
2019-04-26T14:31:33.259Z,15.60
2019-04-26T14:34:05.551Z,15.40
2019-04-26T14:36:32.136Z,15.20
2019-04-26T14:39:05.932Z,15.30
2019-04-26T14:41:31.130Z,15.20
2019-04-26T14:44:14.454Z,15.30
2019-04-26T14:46:30.886Z,15.50
2019-04-26T14:49:01.992Z,15.50
2019-04-26T14:51:29.912Z,15.70
2019-04-26T14:53:58.561Z,15.70
2019-04-26T14:56:29.374Z,15.80
2019-04-26T14:58:57.339Z,15.80
2019-04-26T15:01:35.220Z,15.80
2019-04-26T15:04:21.005Z,15.80
2019-04-26T15:06:52.026Z,15.70
2019-04-26T15:09:29.696Z,15.50
2019-04-26T15:11:57.019Z,15.50
2019-04-26T15:14:22.833Z,15.50
2019-04-26T15:16:51.555Z,15.60
2019-04-26T15:19:20.138Z,15.50
2019-04-26T15:21:48.701Z,15.40
2019-04-26T15:24:30.167Z,15.40
2019-04-26T15:26:58.176Z,15.40
2019-04-26T15:29:28.359Z,15.40
2019-04-26T15:31:57.282Z,15.30
2019-04-26T15:34:26.789Z,15.30
2019-04-26T15:36:55.302Z,15.30
2019-04-26T15:39:37.595Z,15.40
2019-04-26T15:42:25.263Z,15.40
2019-04-26T15:45:10.257Z,15.40
2019-04-26T15:47:58.643Z,15.50
2019-04-26T15:50:31.774Z,15.50
2019-04-26T15:53:02.503Z,15.60
2019-04-26T15:55:33.812Z,15.80
2019-04-26T15:58:08.249Z,15.90
2019-04-26T16:00:35.413Z,16.00
2019-04-26T16:03:07.200Z,16.10
2019-04-26T16:05:33.553Z,15.80
2019-04-26T16:08:04.534Z,15.80
2019-04-26T16:10:34.604Z,15.80
2019-04-26T16:13:16.219Z,15.70
2019-04-26T16:15:34.022Z,15.70
2019-04-26T16:18:04.251Z,15.60
2019-04-26T16:20:37.583Z,15.60
2019-04-26T16:23:06.230Z,15.60
2019-04-26T16:25:34.372Z,15.60
2019-04-26T16:28:22.847Z,15.60
2019-04-26T16:31:06.560Z,15.50
2019-04-26T16:33:43.061Z,15.50
2019-04-26T16:36:12.738Z,15.50
2019-04-26T16:38:41.304Z,15.40
2019-04-26T16:41:09.908Z,15.30
2019-04-26T16:43:44.756Z,15.20
2019-04-26T16:46:12.599Z,15.20
2019-04-26T16:48:40.195Z,15.20
2019-04-26T16:51:09.013Z,15.10
2019-04-26T16:53:52.241Z,15.00
2019-04-26T16:56:07.883Z,15.00
2019-04-26T16:58:38.662Z,15.00
2019-04-26T17:01:10.248Z,15.00
2019-04-26T17:03:38.157Z,14.90
2019-04-26T17:06:11.524Z,14.90
2019-04-26T17:08:42.800Z,14.90
2019-04-26T17:11:08.710Z,14.90
2019-04-26T17:13:50.683Z,15.00
2019-04-26T17:16:13.251Z,15.00
2019-04-26T17:18:42.706Z,15.00
2019-04-26T17:21:12.745Z,15.10
2019-04-26T17:23:45.361Z,15.10
2019-04-26T17:26:36.444Z,15.10
2019-04-26T17:29:04.146Z,15.20
2019-04-26T17:31:33.599Z,15.20
2019-04-26T17:34:03.265Z,15.20
2019-04-26T17:36:34.457Z,15.30
2019-04-26T17:39:04.582Z,15.20
2019-04-26T17:41:33.745Z,15.20
2019-04-26T17:44:08.334Z,15.20
2019-04-26T17:46:34.229Z,15.10
2019-04-26T17:49:02.790Z,15.10
2019-04-26T17:51:41.450Z,15.00
2019-04-26T17:54:21.143Z,14.90
2019-04-26T17:56:35.426Z,14.90
2019-04-26T17:59:03.233Z,14.80
2019-04-26T18:01:42.975Z,14.80
2019-04-26T18:04:02.735Z,14.70
2019-04-26T18:06:31.298Z,14.70
2019-04-26T18:08:59.865Z,14.60
2019-04-26T18:11:28.453Z,14.60
2019-04-26T18:13:57.018Z,14.50
2019-04-26T18:16:29.538Z,14.50
2019-04-26T18:19:06.411Z,14.40
2019-04-26T18:21:36.617Z,14.30
2019-04-26T18:24:05.346Z,14.30
2019-04-26T18:26:35.469Z,14.20
2019-04-26T18:29:04.267Z,14.10
2019-04-26T18:31:33.632Z,14.00
2019-04-26T18:34:04.182Z,14.00
2019-04-26T18:36:33.308Z,14.00
2019-04-26T18:39:03.709Z,13.90
2019-04-26T18:41:33.824Z,13.80
2019-04-26T18:44:03.062Z,13.70
2019-04-26T18:46:48.405Z,13.60
2019-04-26T18:49:22.440Z,13.50
2019-04-26T18:51:49.994Z,13.50
2019-04-26T18:54:23.496Z,13.40
2019-04-26T18:56:55.172Z,13.30
2019-04-26T18:59:23.803Z,13.20
2019-04-26T19:01:54.266Z,13.10
2019-04-26T19:04:23.600Z,13.10
2019-04-26T19:06:52.341Z,13.00
2019-04-26T19:09:22.673Z,12.90
2019-04-26T19:11:52.857Z,12.90
2019-04-26T19:14:25.865Z,12.80
2019-04-26T19:16:59.353Z,12.80
2019-04-26T19:19:32.844Z,12.70
2019-04-26T19:22:09.365Z,12.60
2019-04-26T19:24:38.710Z,12.60
2019-04-26T19:27:07.403Z,12.50
2019-04-26T19:29:36.291Z,12.50
2019-04-26T19:32:07.387Z,12.50
2019-04-26T19:34:35.957Z,12.40
2019-04-26T19:37:04.593Z,12.40
2019-04-26T19:39:35.525Z,12.30
2019-04-26T19:42:06.002Z,12.20
2019-04-26T19:44:33.646Z,12.10
2019-04-26T19:47:15.771Z,12.10
2019-04-26T19:49:52.410Z,12.00
2019-04-26T19:52:24.536Z,12.00
2019-04-26T19:54:54.758Z,12.00
2019-04-26T19:57:38.901Z,11.90
2019-04-26T20:00:09.241Z,11.90
2019-04-26T20:02:39.275Z,11.90
2019-04-26T20:05:08.012Z,11.80
2019-04-26T20:07:36.565Z,11.80
2019-04-26T20:10:07.233Z,11.70
2019-04-26T20:12:38.116Z,11.70
2019-04-26T20:15:07.462Z,11.70
2019-04-26T20:17:36.053Z,11.70
2019-04-26T20:20:16.835Z,11.60
2019-04-26T20:22:35.311Z,11.60
2019-04-26T20:25:04.378Z,11.50
2019-04-26T20:27:32.963Z,11.50
2019-04-26T20:30:02.557Z,11.40
2019-04-26T20:32:38.697Z,11.40
2019-04-26T20:35:12.932Z,11.40
2019-04-26T20:37:41.839Z,11.40
2019-04-26T20:40:20.275Z,11.40
2019-04-26T20:42:42.482Z,11.40
2019-04-26T20:45:13.545Z,11.40
2019-04-26T20:47:41.674Z,11.30
2019-04-26T20:50:12.026Z,11.30
2019-04-26T20:52:41.455Z,11.30
2019-04-26T20:55:11.707Z,11.20
2019-04-26T20:57:42.750Z,11.20
2019-04-26T21:00:12.621Z,11.10
2019-04-26T21:02:42.022Z,11.00
2019-04-26T21:05:14.492Z,11.00
2019-04-26T21:07:45.964Z,10.90
2019-04-26T21:10:21.132Z,10.90
2019-04-26T21:12:52.066Z,10.80
2019-04-26T21:15:20.178Z,10.80
2019-04-26T21:17:49.538Z,10.70
2019-04-26T21:20:18.647Z,10.70
2019-04-26T21:22:50.287Z,10.70
2019-04-26T21:25:36.576Z,10.60
2019-04-26T21:28:14.367Z,10.60
2019-04-26T21:30:47.387Z,10.60
2019-04-26T21:33:20.981Z,10.50
2019-04-26T21:35:52.896Z,10.50
2019-04-26T21:38:39.551Z,10.50
2019-04-26T21:41:14.059Z,10.50
2019-04-26T21:43:43.797Z,10.40
2019-04-26T21:46:18.647Z,10.40
2019-04-26T21:48:44.556Z,10.30
2019-04-26T21:51:16.149Z,10.30
2019-04-26T21:53:50.181Z,10.30
2019-04-26T21:56:18.670Z,10.20
2019-04-26T21:58:48.714Z,10.20
2019-04-26T22:01:20.369Z,10.20
2019-04-26T22:03:53.983Z,10.20
2019-04-26T22:06:24.207Z,10.10
2019-04-26T22:08:58.879Z,10.10
2019-04-26T22:11:26.780Z,10.10
2019-04-26T22:13:57.015Z,10.10
2019-04-26T22:16:42.215Z,10.00
2019-04-26T22:19:32.561Z,10.00
2019-04-26T22:22:16.278Z,10.00
2019-04-26T22:24:55.511Z,9.90
2019-04-26T22:27:25.285Z,9.90
2019-04-26T22:29:55.067Z,10.00
2019-04-26T22:32:23.831Z,10.00
2019-04-26T22:34:54.149Z,10.00
2019-04-26T22:37:29.833Z,10.00
2019-04-26T22:39:56.586Z,10.10
2019-04-26T22:42:25.593Z,10.10
2019-04-26T22:44:55.842Z,10.10
2019-04-26T22:47:33.896Z,10.00
2019-04-26T22:50:03.962Z,10.00
2019-04-26T22:52:33.458Z,10.00
2019-04-26T22:55:05.682Z,10.00
2019-04-26T22:57:36.947Z,10.00
2019-04-26T23:00:06.605Z,9.90
2019-04-26T23:02:35.262Z,9.90
2019-04-26T23:05:08.054Z,9.90
2019-04-26T23:07:38.048Z,9.80
2019-04-26T23:10:09.913Z,9.80
2019-04-26T23:12:58.070Z,9.80
2019-04-26T23:15:30.037Z,9.90
2019-04-26T23:18:08.147Z,10.00
2019-04-26T23:20:37.836Z,10.10
2019-04-26T23:23:08.515Z,10.10
2019-04-26T23:25:36.582Z,10.20
2019-04-26T23:28:06.286Z,10.30
2019-04-26T23:30:34.808Z,10.40
2019-04-26T23:33:03.650Z,10.50
2019-04-26T23:35:37.573Z,10.60
2019-04-26T23:38:05.189Z,10.60
2019-04-26T23:40:33.456Z,10.70
2019-04-26T23:43:02.904Z,10.70
2019-04-26T23:45:33.168Z,10.70
2019-04-26T23:48:03.412Z,10.60
2019-04-26T23:50:33.954Z,10.60
2019-04-26T23:53:03.038Z,10.70
2019-04-26T23:55:31.740Z,10.60
2019-04-26T23:58:00.381Z,10.60
